Time;durP1;ratioP1;P1;durP2;ratioP2;P2;SDS_P1;SDS_P2;PMS_P1;PMS_P2;Temp;Humidity;BMP_temperature;BMP_pressure;BME280_temperature;BME280_humidity;BME280_pressure;Samples;Min_cycle;Max_cycle;Signal;HPM_P1;HPM_P2
2022/04/04 00:00:58;;;;;;;16.90;6.40;;;;;;;-0.55;68.50;99806.59;4181867;28;20252;-64
2022/04/04 00:03:25;;;;;;;20.60;6.30;;;;;;;-0.56;68.27;99804.91;4198690;28;20261;-63
2022/04/04 00:05:52;;;;;;;16.47;5.33;;;;;;;-0.57;67.75;99798.84;4179987;28;20237;-64
2022/04/04 00:08:18;;;;;;;13.57;5.40;;;;;;;-0.57;68.42;99803.22;4181057;28;21907;-64
2022/04/04 00:10:44;;;;;;;14.70;5.63;;;;;;;-0.56;68.31;99797.94;4186010;28;20232;-65
2022/04/04 00:13:11;;;;;;;15.80;5.70;;;;;;;-0.54;68.40;99796.06;4182960;28;20230;-63
2022/04/04 00:15:37;;;;;;;14.80;5.70;;;;;;;-0.57;68.23;99791.00;4186004;28;20233;-63
2022/04/04 00:18:08;;;;;;;13.00;5.20;;;;;;;-0.56;67.76;99792.69;4187066;28;21291;-62
2022/04/04 00:20:34;;;;;;;15.20;5.10;;;;;;;-0.55;66.81;99786.53;4185010;28;20285;-64
2022/04/04 00:23:01;;;;;;;13.57;4.97;;;;;;;-0.55;66.62;99791.75;4190935;28;22187;-62
2022/04/04 00:25:27;;;;;;;14.57;4.83;;;;;;;-0.57;66.64;99783.16;4168377;28;20423;-63
2022/04/04 00:27:54;;;;;;;18.27;5.67;;;;;;;-0.64;66.90;99787.06;4181979;28;20444;-63
2022/04/04 00:30:20;;;;;;;13.63;4.93;;;;;;;-0.71;66.84;99789.19;4189045;28;20236;-64
2022/04/04 00:32:47;;;;;;;18.20;4.87;;;;;;;-0.75;66.37;99792.06;4180838;28;20258;-64
2022/04/04 00:35:14;;;;;;;13.73;5.40;;;;;;;-0.73;66.48;99785.00;4181900;28;21312;-64
2022/04/04 00:37:41;;;;;;;13.70;5.57;;;;;;;-0.79;66.77;99785.38;4200744;28;20587;-62
2022/04/04 00:40:07;;;;;;;14.43;4.30;;;;;;;-0.83;66.62;99786.47;4185919;28;20424;-66
2022/04/04 00:42:34;;;;;;;13.57;5.63;;;;;;;-0.93;66.91;99787.00;4182088;28;20268;-64
2022/04/04 00:45:00;;;;;;;17.77;5.90;;;;;;;-0.91;66.67;99784.31;4177669;28;20240;-64
2022/04/04 00:47:27;;;;;;;12.67;5.07;;;;;;;-1.03;67.23;99783.25;4155846;28;20250;-63
2022/04/04 00:49:53;;;;;;;15.73;5.70;;;;;;;-1.03;67.16;99778.03;4175430;28;20644;-64
2022/04/04 00:52:20;;;;;;;11.53;5.47;;;;;;;-1.07;66.85;99773.88;4172062;28;20249;-64
2022/04/04 00:54:47;;;;;;;15.17;4.83;;;;;;;-1.10;67.05;99774.03;4181796;28;25513;-62
2022/04/04 00:57:13;;;;;;;15.43;4.93;;;;;;;-1.08;67.12;99769.56;4190073;28;21727;-63
2022/04/04 00:59:41;;;;;;;13.43;4.87;;;;;;;-1.16;67.66;99771.81;4175949;28;20236;-63
2022/04/04 01:02:07;;;;;;;14.07;6.20;;;;;;;-1.21;67.69;99771.22;4181234;28;21654;-62
2022/04/04 01:04:34;;;;;;;13.47;5.37;;;;;;;-1.24;68.03;99772.25;4189274;28;20245;-64
2022/04/04 01:07:01;;;;;;;12.93;5.40;;;;;;;-1.22;68.83;99764.31;4192881;28;21469;-64
2022/04/04 01:09:28;;;;;;;13.23;4.70;;;;;;;-1.23;68.93;99768.69;4167422;28;20248;-64
2022/04/04 01:12:07;;;;;;;15.63;5.47;;;;;;;-1.28;69.39;99765.50;4188264;28;20251;-63
2022/04/04 01:14:39;;;;;;;20.57;5.20;;;;;;;-1.25;69.42;99761.88;4184095;28;20232;-63
2022/04/04 01:17:06;;;;;;;16.80;5.23;;;;;;;-1.27;69.43;99762.78;4187196;28;20469;-65
2022/04/04 01:19:33;;;;;;;16.37;5.37;;;;;;;-1.36;70.43;99752.91;4158714;28;21671;-64
2022/04/04 01:22:00;;;;;;;13.03;5.30;;;;;;;-1.30;70.59;99752.53;4173124;28;20267;-63
2022/04/04 01:24:27;;;;;;;13.73;5.00;;;;;;;-1.23;70.01;99746.97;4184363;28;20220;-64
2022/04/04 01:26:54;;;;;;;16.80;6.07;;;;;;;-1.22;69.97;99743.41;4187321;28;21493;-62
2022/04/04 01:29:21;;;;;;;18.17;5.20;;;;;;;-1.16;69.51;99750.91;4174316;28;20310;-64
2022/04/04 01:31:48;;;;;;;13.63;5.17;;;;;;;-1.12;68.21;99744.59;4186704;28;20346;-63
2022/04/04 01:34:17;;;;;;;13.97;4.90;;;;;;;-0.95;66.52;99741.00;4156139;28;20237;-63
2022/04/04 01:36:44;;;;;;;16.83;5.53;;;;;;;-0.93;66.13;99739.16;4183920;28;20240;-63
2022/04/04 01:39:10;;;;;;;17.00;4.97;;;;;;;-0.98;65.54;99736.81;4177272;28;22473;-64
2022/04/04 01:41:37;;;;;;;13.93;5.07;;;;;;;-0.88;64.98;99737.94;4186314;28;20224;-62
2022/04/04 01:44:04;;;;;;;12.30;4.37;;;;;;;-0.82;63.41;99728.06;4186758;28;20239;-63
2022/04/04 01:46:30;;;;;;;12.57;4.93;;;;;;;-0.95;63.84;99731.41;4206492;28;20252;-64
2022/04/04 01:48:58;;;;;;;10.17;4.60;;;;;;;-0.88;63.34;99732.72;4169824;28;20228;-64
2022/04/04 01:51:26;;;;;;;11.27;4.80;;;;;;;-0.88;63.23;99732.72;4160510;28;20229;-65
2022/04/04 01:53:52;;;;;;;13.93;5.07;;;;;;;-0.80;61.92;99720.97;4173072;28;21970;-65
2022/04/04 01:56:20;;;;;;;15.37;5.00;;;;;;;-0.72;61.47;99718.78;4177641;28;21329;-62
2022/04/04 01:58:47;;;;;;;14.17;5.43;;;;;;;-0.65;61.05;99710.47;4162622;28;21200;-64
2022/04/04 02:01:16;;;;;;;13.20;5.13;;;;;;;-0.65;61.13;99712.25;4171941;28;23793;-62
2022/04/04 02:03:47;;;;;;;14.93;5.77;;;;;;;-0.62;60.45;99711.22;4195636;28;20317;-63
2022/04/04 02:06:14;;;;;;;12.63;5.17;;;;;;;-0.71;60.33;99702.97;4187293;28;20239;-62
2022/04/04 02:08:42;;;;;;;15.43;5.07;;;;;;;-0.77;60.36;99695.53;4187691;28;20698;-61
2022/04/04 02:11:09;;;;;;;9.77;4.47;;;;;;;-0.70;60.73;99693.41;4187859;28;20670;-62
2022/04/04 02:13:36;;;;;;;12.07;4.77;;;;;;;-0.68;60.10;99696.72;4188592;28;20304;-63
2022/04/04 02:16:03;;;;;;;16.03;5.30;;;;;;;-0.80;60.22;99702.69;4185791;28;20225;-62
2022/04/04 02:18:31;;;;;;;13.10;5.30;;;;;;;-0.88;60.79;99706.59;4169549;28;22198;-63
2022/04/04 02:20:59;;;;;;;14.00;4.70;;;;;;;-0.93;61.15;99706.03;4177177;28;20235;-62
2022/04/04 02:23:25;;;;;;;13.87;4.87;;;;;;;-0.94;60.51;99699.13;4162275;28;22143;-64
2022/04/04 02:25:55;;;;;;;15.80;5.73;;;;;;;-0.97;60.72;99695.88;4189309;28;20259;-64
2022/04/04 02:28:22;;;;;;;15.40;4.93;;;;;;;-0.95;60.36;99696.63;4188461;28;21221;-64
2022/04/04 02:30:51;;;;;;;13.80;5.00;;;;;;;-0.92;60.10;99692.03;4178089;28;21154;-63
2022/04/04 02:33:19;;;;;;;11.33;4.60;;;;;;;-0.94;60.47;99693.06;4190301;28;21095;-63
2022/04/04 02:35:48;;;;;;;16.20;5.07;;;;;;;-1.00;60.36;99691.66;4159474;28;20222;-63
2022/04/04 02:38:14;;;;;;;10.70;4.10;;;;;;;-1.04;60.60;99687.53;4158782;28;25685;-62
2022/04/04 02:40:41;;;;;;;14.07;4.70;;;;;;;-1.02;60.25;99677.84;4198116;28;20310;-62
2022/04/04 02:43:08;;;;;;;12.77;5.17;;;;;;;-0.94;60.15;99685.22;4176990;28;21092;-62
2022/04/04 02:45:35;;;;;;;14.30;4.80;;;;;;;-1.08;59.94;99679.06;4201140;28;21988;-61
2022/04/04 02:48:02;;;;;;;14.30;5.10;;;;;;;-1.03;60.44;99676.19;4178141;28;22949;-63
2022/04/04 02:50:29;;;;;;;12.40;4.40;;;;;;;-0.99;60.56;99667.22;4194985;28;20260;-61
2022/04/04 02:52:55;;;;;;;12.60;4.70;;;;;;;-0.99;60.24;99677.66;4181748;28;20237;-62
2022/04/04 02:58:07;;;;;;;10.07;4.23;;;;;;;-0.95;60.51;99653.06;4189341;28;20311;-64
2022/04/04 03:00:34;;;;;;;10.80;4.70;;;;;;;-0.96;60.47;99664.44;4208179;28;20240;-63
2022/04/04 03:03:00;;;;;;;16.73;5.53;;;;;;;-0.95;60.22;99658.28;4176162;28;20744;-62
2022/04/04 03:05:28;;;;;;;10.70;4.80;;;;;;;-0.98;61.01;99663.69;4173664;28;21787;-64
2022/04/04 03:07:55;;;;;;;10.73;4.23;;;;;;;-1.02;61.61;99656.13;4177439;28;20240;-64
2022/04/04 03:10:21;;;;;;;14.73;5.10;;;;;;;-0.94;61.07;99665.16;4186860;28;20244;-62
2022/04/04 03:12:53;;;;;;;14.50;5.00;;;;;;;-0.89;60.73;99657.94;4180241;28;20243;-62
2022/04/04 03:15:23;;;;;;;15.00;5.20;;;;;;;-0.83;60.88;99655.88;4163110;28;20255;-62
2022/04/04 03:17:52;;;;;;;15.90;5.40;;;;;;;-0.90;61.35;99660.63;4206535;28;20232;-63
2022/04/04 03:20:20;;;;;;;11.63;4.87;;;;;;;-0.92;61.58;99665.91;4179845;28;21756;-63
2022/04/04 03:22:49;;;;;;;16.47;5.27;;;;;;;-0.87;61.54;99656.06;4198444;28;20255;-63
2022/04/04 03:25:17;;;;;;;14.67;5.70;;;;;;;-0.85;61.70;99659.41;4180770;28;20681;-61
2022/04/04 03:27:45;;;;;;;14.07;4.87;;;;;;;-0.85;61.43;99654.19;4160060;28;21688;-62
2022/04/04 03:30:17;;;;;;;13.90;5.27;;;;;;;-0.85;61.33;99653.34;4180981;28;20244;-62
2022/04/04 03:32:45;;;;;;;19.33;5.13;;;;;;;-0.91;61.76;99644.13;4212206;28;20236;-64
2022/04/04 03:35:16;;;;;;;13.83;5.50;;;;;;;-0.90;62.11;99644.94;4174186;28;20235;-65
2022/04/04 03:37:45;;;;;;;13.07;5.53;;;;;;;-0.78;61.51;99648.59;4198658;28;22473;-63
2022/04/04 03:40:13;;;;;;;12.83;5.33;;;;;;;-0.87;62.36;99648.22;4188825;28;20248;-62
2022/04/04 03:42:41;;;;;;;16.63;5.30;;;;;;;-0.91;62.29;99648.50;4194829;28;21156;-61
2022/04/04 03:45:11;;;;;;;13.53;5.20;;;;;;;-0.91;62.71;99643.28;4173150;28;25138;-60
2022/04/04 03:47:38;;;;;;;13.30;5.33;;;;;;;-0.95;62.68;99640.00;4183313;28;20237;-62
2022/04/04 03:50:06;;;;;;;14.43;5.37;;;;;;;-0.82;62.77;99642.72;4181525;28;22565;-63
2022/04/04 03:52:34;;;;;;;14.63;5.33;;;;;;;-0.81;62.70;99644.41;4197057;28;20239;-65
2022/04/04 03:55:02;;;;;;;12.67;5.33;;;;;;;-0.80;62.84;99646.06;4194312;28;20235;-65
2022/04/04 03:57:29;;;;;;;13.30;5.27;;;;;;;-0.81;63.43;99638.34;4197764;28;20233;-62
2022/04/04 03:59:55;;;;;;;13.77;5.37;;;;;;;-0.82;63.75;99632.28;4190655;28;21621;-64
2022/04/04 04:02:22;;;;;;;13.87;4.90;;;;;;;-0.71;63.52;99636.84;4176148;28;21184;-61
2022/04/04 04:04:48;;;;;;;15.17;5.60;;;;;;;-0.74;63.31;99640.47;4182302;28;20234;-61
2022/04/04 04:07:15;;;;;;;14.47;5.30;;;;;;;-0.70;63.44;99635.94;4191092;28;20251;-62
2022/04/04 04:09:43;;;;;;;19.80;6.07;;;;;;;-0.66;63.89;99630.41;4186325;28;22695;-63
2022/04/04 04:12:11;;;;;;;21.13;5.83;;;;;;;-0.73;63.91;99636.91;4193088;28;20299;-60
2022/04/04 04:14:38;;;;;;;17.73;5.23;;;;;;;-0.66;64.28;99633.03;4186337;28;20654;-63
2022/04/04 04:17:06;;;;;;;12.70;5.20;;;;;;;-0.55;64.34;99629.75;4167065;28;26335;-62
2022/04/04 04:22:18;;;;;;;14.07;4.97;;;;;;;-0.64;64.90;99636.38;4192892;28;22148;-64
2022/04/04 04:24:45;;;;;;;11.00;5.10;;;;;;;-0.50;64.70;99635.53;4159362;28;20356;-64
2022/04/04 04:27:12;;;;;;;15.47;5.87;;;;;;;-0.40;64.29;99630.56;4189094;28;20248;-65
2022/04/04 04:29:39;;;;;;;13.27;4.90;;;;;;;-0.43;64.23;99621.13;4202025;28;23631;-63
2022/04/04 04:32:13;;;;;;;13.37;5.70;;;;;;;-0.38;63.86;99620.84;4192448;28;20302;-66
2022/04/04 04:34:40;;;;;;;18.50;5.47;;;;;;;-0.41;64.75;99622.84;4195410;28;20229;-62
2022/04/04 04:37:06;;;;;;;13.80;5.60;;;;;;;-0.41;64.51;99625.44;4197938;28;25751;-64
2022/04/04 04:39:33;;;;;;;15.77;5.67;;;;;;;-0.39;64.60;99618.34;4182143;28;20384;-65
2022/04/04 04:41:59;;;;;;;11.83;5.27;;;;;;;-0.45;64.81;99624.78;4185940;28;22491;-64
2022/04/04 04:44:26;;;;;;;18.10;5.77;;;;;;;-0.41;65.13;99613.22;4214251;28;20433;-63
2022/04/04 04:46:53;;;;;;;17.00;5.63;;;;;;;-0.31;65.02;99616.09;4182435;28;20347;-63
2022/04/04 04:49:20;;;;;;;12.43;5.20;;;;;;;-0.25;64.90;99619.16;4173738;28;21282;-63
2022/04/04 04:51:46;;;;;;;12.53;5.50;;;;;;;-0.21;65.32;99622.44;4205705;28;20237;-63
2022/04/04 04:54:13;;;;;;;11.03;5.30;;;;;;;-0.18;65.24;99619.63;4191804;28;22810;-61
2022/04/04 04:56:39;;;;;;;12.70;5.50;;;;;;;-0.14;65.27;99615.03;4198338;28;20237;-62
2022/04/04 04:59:06;;;;;;;11.83;5.70;;;;;;;-0.11;65.67;99620.06;4205778;28;20292;-64
2022/04/04 05:01:32;;;;;;;19.37;6.47;;;;;;;-0.12;65.91;99616.59;4202783;28;21624;-64
2022/04/04 05:03:59;;;;;;;13.20;6.07;;;;;;;-0.05;65.72;99622.28;4183137;28;20357;-64
2022/04/04 05:06:25;;;;;;;15.73;6.53;;;;;;;-0.07;66.13;99614.56;4198399;28;21578;-64
2022/04/04 05:08:55;;;;;;;18.10;5.57;;;;;;;-0.02;66.27;99620.31;4211179;28;20564;-62
2022/04/04 05:11:21;;;;;;;14.37;6.00;;;;;;;0.04;65.98;99621.69;4183904;28;26411;-64
2022/04/04 05:13:48;;;;;;;16.27;6.13;;;;;;;0.10;66.44;99623.09;4208163;28;21072;-65
2022/04/04 05:16:14;;;;;;;17.57;6.13;;;;;;;0.09;67.14;99631.88;4184285;28;20243;-66
2022/04/04 05:18:44;;;;;;;14.93;6.30;;;;;;;0.05;66.98;99630.38;4186854;28;20378;-63
2022/04/04 05:21:11;;;;;;;17.00;6.80;;;;;;;0.14;67.15;99633.28;4182831;28;20415;-64
2022/04/04 05:23:39;;;;;;;19.70;7.37;;;;;;;0.05;68.08;99626.00;4219668;28;20295;-66
2022/04/04 05:26:08;;;;;;;19.83;6.93;;;;;;;0.08;68.36;99638.06;4187387;28;22034;-63
2022/04/04 05:28:35;;;;;;;18.53;7.20;;;;;;;0.03;69.40;99632.28;4171692;28;20819;-63
2022/04/04 05:31:04;;;;;;;26.20;11.83;;;;;;;-0.09;71.12;99636.50;4190058;28;21291;-63
2022/04/04 05:33:32;;;;;;;18.60;7.80;;;;;;;-0.17;72.90;99623.91;4202272;28;20234;-62
2022/04/04 05:35:58;;;;;;;15.90;6.77;;;;;;;-0.15;75.59;99635.09;4173551;28;20736;-63
2022/04/04 05:38:25;;;;;;;23.43;9.60;;;;;;;-0.37;79.29;99626.94;4169225;28;20273;-62
2022/04/04 05:40:52;;;;;;;23.23;8.00;;;;;;;-0.40;81.58;99625.34;4189875;28;20432;-64
2022/04/04 05:43:18;;;;;;;23.47;7.73;;;;;;;-0.34;82.47;99621.53;4181064;28;20253;-64
2022/04/04 05:45:48;;;;;;;26.73;8.10;;;;;;;-0.10;82.10;99629.59;4195817;28;20233;-63
2022/04/04 05:48:15;;;;;;;24.33;8.27;;;;;;;-0.01;81.42;99629.84;4168630;28;20287;-62
2022/04/04 05:50:41;;;;;;;18.33;8.13;;;;;;;-0.01;81.31;99619.38;4173389;28;20232;-64
2022/04/04 05:53:09;;;;;;;26.33;9.03;;;;;;;0.03;81.25;99627.88;4191584;28;20482;-61
2022/04/04 05:55:36;;;;;;;18.47;7.83;;;;;;;0.01;81.16;99626.31;4192100;28;20237;-62
2022/04/04 05:58:02;;;;;;;18.90;7.73;;;;;;;0.07;80.82;99628.50;4184946;28;20242;-64
2022/04/04 06:00:29;;;;;;;19.73;7.70;;;;;;;0.10;80.83;99630.94;4195900;28;20280;-62
2022/04/04 06:02:56;;;;;;;15.90;7.80;;;;;;;0.14;80.01;99620.19;4199305;28;20252;-62
2022/04/04 06:05:22;;;;;;;17.77;7.60;;;;;;;0.14;79.68;99621.94;4214325;28;20325;-65
2022/04/04 06:07:49;;;;;;;17.90;8.33;;;;;;;0.20;79.48;99618.94;4186395;28;20345;-63
2022/04/04 06:10:16;;;;;;;17.90;7.93;;;;;;;0.11;80.04;99622.16;4190696;28;25289;-63
2022/04/04 06:12:44;;;;;;;19.20;7.67;;;;;;;0.13;79.89;99622.91;4179784;28;22833;-66
2022/04/04 06:15:11;;;;;;;21.40;8.53;;;;;;;0.04;81.05;99626.09;4177258;28;21318;-64
2022/04/04 06:17:38;;;;;;;21.00;8.53;;;;;;;-0.06;83.42;99623.22;4218512;28;20234;-66
2022/04/04 06:20:06;;;;;;;20.73;8.80;;;;;;;-0.29;86.59;99620.28;4198651;28;20224;-64
2022/04/04 06:22:36;;;;;;;22.53;10.07;;;;;;;-0.78;92.45;99622.47;4206411;28;20663;-63
2022/04/04 06:25:05;;;;;;;28.40;11.40;;;;;;;-0.91;97.46;99622.38;4184276;28;21290;-64
2022/04/04 06:27:31;;;;;;;23.10;11.70;;;;;;;-1.01;99.41;99621.25;4206367;28;21502;-64
2022/04/04 06:29:58;;;;;;;29.10;12.70;;;;;;;-0.91;100.00;99628.44;4187283;28;20272;-64
2022/04/04 06:32:26;;;;;;;26.13;12.13;;;;;;;-0.92;100.00;99637.19;4190944;28;20232;-64
2022/04/04 06:34:52;;;;;;;28.13;12.67;;;;;;;-0.76;100.00;99631.06;4195435;28;20731;-65
2022/04/04 06:37:19;;;;;;;35.37;13.00;;;;;;;-0.57;99.94;99631.59;4190603;28;20347;-65
2022/04/04 06:39:46;;;;;;;26.40;12.30;;;;;;;-0.39;97.60;99631.44;4194623;28;20237;-65
2022/04/04 06:42:12;;;;;;;25.70;11.57;;;;;;;-0.24;96.25;99628.66;4205788;28;20241;-64
2022/04/04 06:44:39;;;;;;;29.17;11.90;;;;;;;-0.12;95.13;99616.59;4176612;28;21053;-64
2022/04/04 06:47:06;;;;;;;24.20;11.37;;;;;;;0.03;94.02;99621.81;4174215;28;20318;-64
2022/04/04 06:49:32;;;;;;;25.93;12.00;;;;;;;0.06;93.72;99619.00;4182694;28;20330;-66
2022/04/04 06:51:59;;;;;;;30.33;12.23;;;;;;;0.06;92.61;99624.22;4191161;28;20236;-63
2022/04/04 06:54:27;;;;;;;22.57;10.43;;;;;;;0.10;91.64;99616.09;4186698;28;20287;-64
2022/04/04 06:56:55;;;;;;;27.83;11.07;;;;;;;0.20;91.25;99616.31;4167815;28;20238;-65
2022/04/04 06:59:22;;;;;;;28.63;11.07;;;;;;;0.29;90.32;99615.72;4186416;28;20233;-64
2022/04/04 07:01:50;;;;;;;27.27;11.37;;;;;;;0.40;89.53;99612.44;4190360;28;20242;-66
2022/04/04 07:04:16;;;;;;;23.90;10.73;;;;;;;0.56;87.69;99620.94;4185608;28;20229;-67
2022/04/04 07:06:43;;;;;;;26.23;10.27;;;;;;;0.73;85.48;99614.59;4176366;28;22146;-65
2022/04/04 07:09:09;;;;;;;28.00;11.03;;;;;;;0.77;84.73;99618.69;4185175;28;20232;-65
2022/04/04 07:11:36;;;;;;;28.93;10.73;;;;;;;0.69;84.94;99617.50;4183230;28;20245;-65
2022/04/04 07:14:03;;;;;;;29.53;10.73;;;;;;;0.82;83.95;99602.66;4200935;28;20263;-65
2022/04/04 07:16:30;;;;;;;30.53;10.53;;;;;;;0.85;83.54;99612.91;4174925;28;20228;-64
2022/04/04 07:18:56;;;;;;;30.10;10.33;;;;;;;1.10;82.98;99601.63;4174412;28;20449;-65
2022/04/04 07:21:23;;;;;;;23.77;10.17;;;;;;;1.21;82.13;99604.31;4183722;28;20352;-63
2022/04/04 07:23:50;;;;;;;21.10;9.23;;;;;;;1.28;81.58;99599.50;4160322;28;20232;-64
2022/04/04 07:26:19;;;;;;;21.40;10.43;;;;;;;1.34;81.01;99593.84;4179666;28;26261;-63
2022/04/04 07:28:46;;;;;;;18.57;9.00;;;;;;;1.45;81.10;99593.06;4178304;28;21231;-64
2022/04/04 07:31:16;;;;;;;22.07;9.53;;;;;;;1.55;79.83;99585.41;4191247;28;21055;-63
2022/04/04 07:33:43;;;;;;;22.90;9.83;;;;;;;1.58;79.73;99587.81;4168659;28;20233;-64
2022/04/04 07:36:10;;;;;;;26.90;10.03;;;;;;;1.68;79.75;99580.94;4175743;28;20305;-67
2022/04/04 07:38:37;;;;;;;22.43;9.67;;;;;;;2.45;77.89;99581.44;4186582;28;20245;-66
2022/04/04 07:41:04;;;;;;;20.93;9.47;;;;;;;2.98;74.39;99593.31;4181575;28;20283;-63
2022/04/04 07:43:31;;;;;;;26.93;9.70;;;;;;;2.74;74.18;99587.16;4194262;28;22464;-63
2022/04/04 07:45:58;;;;;;;19.63;9.60;;;;;;;2.43;76.16;99579.88;4188580;28;20233;-64
2022/04/04 07:48:24;;;;;;;23.17;10.03;;;;;;;2.49;77.29;99582.06;4177730;28;20671;-65
2022/04/04 07:50:51;;;;;;;27.83;11.17;;;;;;;2.24;77.59;99576.00;4183262;28;20393;-64
2022/04/04 07:53:18;;;;;;;20.03;8.53;;;;;;;2.83;75.84;99580.34;4174018;28;21774;-65
2022/04/04 07:55:45;;;;;;;20.90;10.03;;;;;;;2.68;75.28;99578.91;4199301;28;20239;-63
2022/04/04 07:58:14;;;;;;;20.47;9.20;;;;;;;2.70;75.95;99569.94;4157394;28;20262;-64
2022/04/04 08:00:41;;;;;;;18.87;8.30;;;;;;;3.71;72.70;99577.00;4192461;28;20250;-66
2022/04/04 08:03:07;;;;;;;21.33;8.10;;;;;;;6.14;62.36;99572.34;4179927;28;20245;-66
2022/04/04 08:05:34;;;;;;;15.27;7.63;;;;;;;7.40;55.87;99580.06;4207691;28;20244;-65
2022/04/04 08:08:01;;;;;;;17.43;7.37;;;;;;;8.95;49.96;99589.75;4175744;28;20249;-65
2022/04/04 08:10:27;;;;;;;17.27;7.50;;;;;;;8.59;49.85;99579.16;4181700;28;21780;-65
2022/04/04 08:12:55;;;;;;;20.90;7.97;;;;;;;9.14;47.50;99573.59;4188630;28;20234;-62
2022/04/04 08:15:21;;;;;;;21.90;7.43;;;;;;;8.29;48.85;99578.56;4177128;28;20515;-62
2022/04/04 08:17:55;;;;;;;21.70;8.57;;;;;;;6.02;56.76;99568.16;4174072;28;20228;-65
2022/04/04 08:20:21;;;;;;;24.73;9.17;;;;;;;5.64;59.41;99561.78;4190495;28;23333;-65
2022/04/04 08:22:48;;;;;;;18.93;8.57;;;;;;;5.38;60.74;99554.34;4200491;28;20242;-65
2022/04/04 08:25:16;;;;;;;19.03;8.93;;;;;;;5.08;62.44;99563.94;4182324;28;25553;-66
2022/04/04 08:27:44;;;;;;;25.77;8.23;;;;;;;5.25;61.93;99549.31;4196956;28;20287;-64
2022/04/04 08:30:13;;;;;;;23.13;8.57;;;;;;;5.31;62.08;99563.75;4189091;28;20239;-66
2022/04/04 08:32:40;;;;;;;21.70;8.03;;;;;;;5.82;60.42;99557.53;4202114;28;20278;-64
2022/04/04 08:35:09;;;;;;;16.67;8.10;;;;;;;4.82;62.52;99554.78;4186172;28;20246;-66
2022/04/04 08:37:36;;;;;;;21.30;9.10;;;;;;;4.16;65.20;99540.03;4202826;28;22271;-66
2022/04/04 08:40:07;;;;;;;21.67;9.03;;;;;;;4.08;66.45;99542.47;4192377;28;20497;-64
2022/04/04 08:42:34;;;;;;;23.17;8.97;;;;;;;3.72;67.25;99541.88;4185142;28;22955;-63
2022/04/04 08:45:02;;;;;;;26.03;8.70;;;;;;;3.89;68.86;99531.78;4185956;28;20519;-65
2022/04/04 08:47:30;;;;;;;24.67;9.60;;;;;;;4.39;66.42;99529.41;4189072;28;20248;-63
2022/04/04 08:49:57;;;;;;;30.07;9.60;;;;;;;4.67;65.32;99527.91;4198949;28;20240;-66
2022/04/04 08:52:25;;;;;;;23.57;9.77;;;;;;;4.81;63.59;99524.13;4168405;28;20300;-65
2022/04/04 08:54:52;;;;;;;21.43;8.97;;;;;;;4.51;64.99;99517.84;4191281;28;20245;-65
2022/04/04 08:57:19;;;;;;;20.63;8.63;;;;;;;4.60;64.72;99517.06;4183889;28;21434;-64
2022/04/04 08:59:45;;;;;;;29.57;9.93;;;;;;;4.63;65.18;99515.97;4162403;28;20647;-66
2022/04/04 09:02:12;;;;;;;20.60;8.87;;;;;;;4.81;64.14;99513.56;4185833;28;21324;-65
2022/04/04 09:04:40;;;;;;;25.63;8.83;;;;;;;4.98;63.49;99506.84;4193733;28;20253;-64
2022/04/04 09:07:11;;;;;;;19.27;8.50;;;;;;;5.07;62.96;99492.88;4190860;28;20347;-65
2022/04/04 09:09:40;;;;;;;18.37;9.03;;;;;;;4.81;63.64;99495.13;4175493;28;20320;-65
2022/04/04 09:12:08;;;;;;;22.47;8.63;;;;;;;4.73;64.73;99482.63;4161969;28;20237;-64
2022/04/04 09:14:37;;;;;;;18.17;8.43;;;;;;;4.97;63.85;99476.19;4199927;28;20512;-65
2022/04/04 09:17:07;;;;;;;23.80;8.40;;;;;;;5.28;62.32;99477.81;4214880;28;20231;-66
2022/04/04 09:19:34;;;;;;;23.07;8.10;;;;;;;5.07;63.24;99485.78;4174367;28;20757;-66
2022/04/04 09:22:19;;;;;;;20.87;7.53;;;;;;;5.15;62.93;99477.25;4182826;28;20231;-65
2022/04/04 09:24:57;;;;;;;18.53;6.80;;;;;;;4.75;63.98;99472.78;4191040;28;20340;-70
2022/04/04 09:27:25;;;;;;;10.93;6.30;;;;;;;4.51;66.47;99462.50;4165794;28;20241;-64
2022/04/04 09:30:00;;;;;;;14.70;6.40;;;;;;;4.77;63.68;99455.00;4199142;28;20242;-65
2022/04/04 09:32:43;;;;;;;14.60;6.27;;;;;;;4.86;64.43;99456.84;4162972;28;20248;-66
2022/04/04 09:35:13;;;;;;;13.13;6.33;;;;;;;4.85;63.52;99442.00;4176234;28;20312;-64
2022/04/04 09:37:44;;;;;;;17.03;6.97;;;;;;;4.83;64.18;99453.66;4188404;28;20228;-68
2022/04/04 09:40:16;;;;;;;18.27;7.00;;;;;;;4.84;63.63;99442.13;4172646;28;20326;-65
2022/04/04 09:42:57;;;;;;;13.97;6.00;;;;;;;4.56;64.12;99436.59;4185118;28;23669;-67
2022/04/04 09:45:26;;;;;;;16.13;7.03;;;;;;;4.90;63.27;99438.16;4171782;28;20281;-66
2022/04/04 09:48:07;;;;;;;14.93;6.13;;;;;;;5.17;62.23;99434.88;4193483;28;21427;-64
2022/04/04 09:50:39;;;;;;;14.57;6.10;;;;;;;5.39;61.25;99428.56;4226233;28;21176;-65
2022/04/04 09:53:13;;;;;;;11.27;5.73;;;;;;;5.48;60.68;99433.84;4192366;28;22066;-66
2022/04/04 09:55:45;;;;;;;21.03;6.70;;;;;;;5.45;60.51;99425.34;4238439;28;20232;-64
2022/04/04 09:58:17;;;;;;;13.43;5.73;;;;;;;5.23;61.14;99423.81;4164771;28;20496;-66
2022/04/04 10:00:45;;;;;;;13.93;6.77;;;;;;;5.32;61.73;99423.00;4174573;28;20252;-66
2022/04/04 10:03:13;;;;;;;15.87;6.50;;;;;;;5.31;60.62;99416.03;4217190;28;20247;-66
2022/04/04 10:05:42;;;;;;;13.37;6.10;;;;;;;5.59;60.52;99405.66;4210051;28;21242;-66
2022/04/04 10:08:13;;;;;;;16.13;6.87;;;;;;;5.66;59.68;99410.22;4178814;28;21621;-64
2022/04/04 10:10:40;;;;;;;22.47;7.73;;;;;;;5.69;60.33;99411.78;4174828;28;20236;-64
2022/04/04 10:13:07;;;;;;;21.93;7.63;;;;;;;5.72;59.91;99406.22;4177130;28;21348;-66
2022/04/04 10:15:36;;;;;;;16.83;7.70;;;;;;;5.85;59.69;99390.09;4173330;28;20252;-66
2022/04/04 10:18:03;;;;;;;17.53;6.17;;;;;;;5.99;58.58;99396.78;4195708;28;20233;-66
2022/04/04 10:20:30;;;;;;;19.07;7.77;;;;;;;6.05;58.45;99394.41;4189302;28;20237;-66
2022/04/04 10:22:58;;;;;;;24.10;6.40;;;;;;;6.15;58.21;99397.03;4181987;28;20243;-69
2022/04/04 10:25:32;;;;;;;16.23;7.23;;;;;;;6.45;58.59;99376.66;4178727;28;20252;-68
2022/04/04 10:27:59;;;;;;;17.57;6.57;;;;;;;6.31;58.50;99381.41;4186646;28;20255;-67
2022/04/04 10:30:41;;;;;;;11.87;6.13;;;;;;;6.32;58.45;99379.59;4171042;28;20238;-67
2022/04/04 10:33:19;;;;;;;16.53;6.20;;;;;;;6.22;57.96;99386.72;4179005;28;26704;-66
2022/04/04 10:36:04;;;;;;;11.43;4.30;;;;;;;5.99;58.58;99370.38;4187373;28;20611;-69
2022/04/04 10:38:38;;;;;;;11.73;3.27;;;;;;;5.92;57.09;99368.28;4194587;28;21590;-64
2022/04/04 10:41:08;;;;;;;11.03;3.43;;;;;;;5.81;57.40;99375.53;4188442;28;20234;-70
2022/04/04 10:43:37;;;;;;;9.77;3.53;;;;;;;5.66;57.02;99372.44;4189020;28;20557;-66
2022/04/04 10:46:08;;;;;;;7.87;3.23;;;;;;;5.59;55.86;99366.06;4174681;28;20228;-67
2022/04/04 10:48:38;;;;;;;8.67;2.70;;;;;;;5.81;56.10;99359.69;4187265;28;20241;-69
2022/04/04 10:51:12;;;;;;;10.77;3.50;;;;;;;5.67;55.41;99368.84;4160109;28;22153;-69
2022/04/04 10:53:57;;;;;;;8.40;2.90;;;;;;;5.67;54.13;99363.59;4181358;28;20332;-66
2022/04/04 10:56:26;;;;;;;9.57;3.03;;;;;;;5.56;54.83;99354.00;4171962;28;20470;-67
2022/04/04 10:59:13;;;;;;;12.93;3.60;;;;;;;5.54;55.24;99340.09;4206679;28;21336;-67
2022/04/04 11:01:40;;;;;;;11.80;3.00;;;;;;;5.55;52.94;99352.34;4193024;28;20414;-64
2022/04/04 11:04:23;;;;;;;9.37;3.60;;;;;;;5.54;53.39;99357.75;4179767;28;20237;-62
2022/04/04 11:09:50;;;;;;;7.83;2.97;;;;;;;5.66;53.62;99338.13;4176094;28;20242;-63
2022/04/04 11:12:18;;;;;;;9.57;3.50;;;;;;;5.67;51.64;99339.81;4186981;28;21442;-66
2022/04/04 11:14:53;;;;;;;13.50;3.60;;;;;;;5.65;51.22;99337.31;4200150;28;22895;-65
2022/04/04 11:17:28;;;;;;;10.33;2.93;;;;;;;5.55;51.88;99333.88;4172415;28;20244;-66
2022/04/04 11:20:04;;;;;;;10.70;3.20;;;;;;;5.55;53.10;99333.88;4186830;28;22176;-65
2022/04/04 11:22:33;;;;;;;6.97;2.50;;;;;;;5.74;53.68;99333.00;4211030;28;20632;-62
2022/04/04 11:25:05;;;;;;;11.87;2.93;;;;;;;5.91;52.05;99312.97;4194105;28;20381;-66
2022/04/04 11:27:36;;;;;;;7.67;2.83;;;;;;;5.82;51.10;99325.19;4197598;28;20236;-68
2022/04/04 11:30:09;;;;;;;8.27;3.33;;;;;;;5.72;50.91;99314.66;4177106;28;20240;-64
2022/04/04 11:32:40;;;;;;;11.97;3.73;;;;;;;5.86;53.79;99321.31;4182051;28;22750;-63
2022/04/04 11:35:14;;;;;;;9.73;4.00;;;;;;;6.03;55.14;99316.28;4192241;28;20263;-72
2022/04/04 11:37:46;;;;;;;11.13;4.33;;;;;;;6.07;55.91;99304.47;4177955;28;25283;-63
2022/04/04 11:40:15;;;;;;;14.93;4.13;;;;;;;5.99;55.46;99297.25;4192533;28;21554;-64
2022/04/04 11:42:44;;;;;;;8.93;4.37;;;;;;;5.88;54.77;99303.53;4182433;28;22379;-63